createdAt,value
2019-06-10T00:01:06.037Z,13.50
2019-06-10T00:03:32.430Z,13.47
2019-06-10T00:06:03.348Z,14.27
2019-06-10T00:08:30.838Z,14.50
2019-06-10T00:10:58.931Z,15.10
2019-06-10T00:13:26.968Z,14.40
2019-06-10T00:15:54.938Z,14.37
2019-06-10T00:18:38.430Z,14.07
2019-06-10T00:20:52.612Z,14.80
2019-06-10T00:23:21.225Z,15.10
2019-06-10T00:25:51.417Z,13.93
2019-06-10T00:28:21.584Z,14.50
2019-06-10T00:30:48.803Z,13.77
2019-06-10T00:33:16.818Z,14.13
2019-06-10T00:35:44.856Z,13.73
2019-06-10T00:38:14.762Z,13.67
2019-06-10T00:40:42.790Z,14.37
2019-06-10T00:43:13.305Z,15.43
2019-06-10T00:45:40.987Z,14.03
2019-06-10T00:48:21.307Z,13.60
2019-06-10T00:50:41.143Z,13.87
2019-06-10T00:53:09.901Z,13.50
2019-06-10T00:55:38.230Z,14.30
2019-06-10T00:58:07.494Z,13.10
2019-06-10T01:00:35.653Z,15.73
2019-06-10T01:03:03.960Z,15.40
2019-06-10T01:05:31.933Z,14.20
2019-06-10T01:08:01.428Z,13.80
2019-06-10T01:10:31.642Z,13.20
2019-06-10T01:13:00.811Z,13.30
2019-06-10T01:15:31.146Z,12.70
2019-06-10T01:17:58.760Z,14.00
2019-06-10T01:20:26.719Z,14.17
2019-06-10T01:22:54.811Z,12.90
2019-06-10T01:25:22.850Z,13.80
2019-06-10T01:27:51.534Z,13.60
2019-06-10T01:30:24.538Z,13.50
2019-06-10T01:32:50.653Z,12.37
2019-06-10T01:35:21.004Z,13.90
2019-06-10T01:37:48.428Z,13.43
2019-06-10T01:40:17.981Z,13.30
2019-06-10T01:42:46.092Z,13.73
2019-06-10T01:45:14.644Z,13.17
2019-06-10T01:47:43.797Z,13.57
2019-06-10T01:50:14.242Z,14.47
2019-06-10T01:52:41.594Z,13.60
2019-06-10T01:55:12.202Z,14.30
2019-06-10T01:57:41.314Z,14.53
2019-06-10T02:00:15.905Z,13.80
2019-06-10T02:02:44.797Z,13.33
2019-06-10T02:05:12.612Z,13.27
2019-06-10T02:07:41.017Z,13.70
2019-06-10T02:10:11.793Z,13.50
2019-06-10T02:12:41.446Z,14.03
2019-06-10T02:15:10.077Z,13.00
2019-06-10T02:17:38.470Z,13.43
2019-06-10T02:20:06.638Z,13.83
2019-06-10T02:22:34.611Z,14.40
2019-06-10T02:25:02.583Z,14.13
2019-06-10T02:27:31.501Z,15.30
2019-06-10T02:30:03.812Z,15.67
2019-06-10T02:32:36.859Z,15.30
2019-06-10T02:35:13.279Z,14.70
2019-06-10T02:37:32.679Z,15.23
2019-06-10T02:39:58.419Z,14.87
2019-06-10T02:42:35.495Z,15.00
2019-06-10T02:45:03.654Z,15.60
2019-06-10T02:47:36.338Z,14.10
2019-06-10T02:50:04.443Z,14.60
2019-06-10T02:52:34.350Z,14.40
2019-06-10T02:54:59.923Z,14.20
2019-06-10T02:57:32.919Z,15.20
2019-06-10T02:59:57.612Z,15.70
2019-06-10T03:02:29.994Z,14.77
2019-06-10T03:04:55.300Z,15.80
2019-06-10T03:07:26.796Z,14.60
2019-06-10T03:09:53.718Z,14.70
2019-06-10T03:12:24.003Z,14.20
2019-06-10T03:14:52.601Z,14.67
2019-06-10T03:17:24.574Z,15.07
2019-06-10T03:19:53.572Z,14.67
2019-06-10T03:22:22.971Z,14.23
2019-06-10T03:24:52.404Z,14.80
2019-06-10T03:27:21.137Z,15.67
2019-06-10T03:29:52.568Z,15.40
2019-06-10T03:32:23.188Z,14.80
2019-06-10T03:34:49.452Z,13.47
2019-06-10T03:37:18.302Z,14.40
2019-06-10T03:39:46.308Z,14.00
2019-06-10T03:42:14.270Z,14.70
2019-06-10T03:44:43.047Z,13.40
2019-06-10T03:47:12.187Z,13.20
2019-06-10T03:49:49.889Z,13.67
2019-06-10T03:52:09.941Z,12.67
2019-06-10T03:54:37.923Z,11.73
2019-06-10T03:57:05.884Z,13.17
2019-06-10T03:59:33.903Z,12.50
2019-06-10T04:02:02.346Z,12.80
2019-06-10T04:04:32.797Z,13.50
2019-06-10T04:07:03.769Z,13.33
2019-06-10T04:09:32.963Z,12.57
2019-06-10T04:12:02.060Z,12.77
2019-06-10T04:14:32.616Z,13.50
2019-06-10T04:16:59.774Z,13.93
2019-06-10T04:19:28.777Z,13.47
2019-06-10T04:21:56.853Z,12.93
2019-06-10T04:24:25.763Z,12.83
2019-06-10T04:26:54.529Z,11.80
2019-06-10T04:29:23.091Z,12.47
2019-06-10T04:31:52.460Z,12.50
2019-06-10T04:34:22.920Z,15.87
2019-06-10T04:36:52.427Z,14.93
2019-06-10T04:39:20.503Z,13.23
2019-06-10T04:41:49.512Z,12.53
2019-06-10T04:44:18.555Z,12.67
2019-06-10T04:46:46.660Z,11.50
2019-06-10T04:49:14.657Z,12.80
2019-06-10T04:51:43.490Z,12.03
2019-06-10T04:54:13.333Z,12.33
2019-06-10T04:56:42.884Z,13.20
2019-06-10T04:59:12.540Z,11.30
2019-06-10T05:01:42.641Z,11.33
2019-06-10T05:04:12.343Z,11.40
2019-06-10T05:06:42.010Z,12.30
2019-06-10T05:09:09.674Z,12.00
2019-06-10T05:11:37.652Z,11.00
2019-06-10T05:14:05.593Z,11.70
2019-06-10T05:16:35.812Z,10.93
2019-06-10T05:19:03.781Z,11.10
2019-06-10T05:21:33.764Z,11.37
2019-06-10T05:24:02.949Z,10.40
2019-06-10T05:26:33.303Z,11.00
2019-06-10T05:29:02.891Z,10.43
2019-06-10T05:31:34.651Z,10.90
2019-06-10T05:34:02.232Z,11.97
2019-06-10T05:36:31.083Z,11.60
2019-06-10T05:38:59.539Z,11.03
2019-06-10T05:41:28.975Z,10.90
2019-06-10T05:43:57.239Z,10.03
2019-06-10T05:46:25.761Z,10.03
2019-06-10T05:48:54.881Z,10.70
2019-06-10T05:51:24.850Z,9.87
2019-06-10T05:53:52.934Z,10.70
2019-06-10T05:56:22.396Z,10.63
2019-06-10T05:58:52.517Z,10.07
2019-06-10T06:01:22.420Z,11.20
2019-06-10T06:03:52.658Z,10.20
2019-06-10T06:06:19.688Z,10.40
2019-06-10T06:08:47.627Z,10.20
2019-06-10T06:11:15.616Z,11.03
2019-06-10T06:13:43.581Z,10.53
2019-06-10T06:16:12.634Z,10.70
2019-06-10T06:18:42.240Z,10.30
2019-06-10T06:21:22.500Z,9.87
2019-06-10T06:23:40.279Z,10.47
2019-06-10T06:26:08.333Z,10.10
2019-06-10T06:28:36.327Z,9.73
2019-06-10T06:31:04.284Z,10.10
2019-06-10T06:33:36.143Z,10.13
2019-06-10T06:36:03.571Z,10.77
2019-06-10T06:38:33.512Z,9.80
2019-06-10T06:41:03.203Z,9.97
2019-06-10T06:43:36.386Z,9.40
2019-06-10T06:46:02.489Z,9.43
2019-06-10T06:48:33.590Z,9.70
2019-06-10T06:51:04.860Z,9.57
2019-06-10T06:53:35.233Z,8.93
2019-06-10T06:55:59.328Z,9.20
2019-06-10T06:58:27.332Z,10.03
2019-06-10T07:01:04.126Z,9.67
2019-06-10T07:03:25.097Z,10.20
2019-06-10T07:05:53.788Z,9.30
2019-06-10T07:08:22.822Z,9.70
2019-06-10T07:10:52.271Z,10.73
2019-06-10T07:13:22.174Z,10.07
2019-06-10T07:15:53.301Z,9.80
2019-06-10T07:18:20.093Z,9.87
2019-06-10T07:20:48.020Z,10.47
2019-06-10T07:23:16.508Z,10.20
2019-06-10T07:25:47.260Z,9.97
2019-06-10T07:28:14.083Z,9.83
2019-06-10T07:30:47.256Z,11.50
2019-06-10T07:33:13.548Z,9.93
2019-06-10T07:35:43.750Z,8.80
2019-06-10T07:38:12.210Z,9.60
2019-06-10T07:40:45.258Z,9.03
2019-06-10T07:43:10.130Z,10.20
2019-06-10T07:45:39.408Z,9.53
2019-06-10T07:48:07.883Z,9.87
2019-06-10T07:50:36.537Z,9.13
2019-06-10T07:53:05.532Z,9.00
2019-06-10T07:55:34.998Z,9.17
2019-06-10T07:58:03.189Z,8.80
2019-06-10T08:00:33.375Z,8.87
2019-06-10T08:03:02.465Z,8.90
2019-06-10T08:05:32.332Z,9.60
2019-06-10T08:08:02.675Z,9.90
2019-06-10T08:10:29.848Z,9.80
2019-06-10T08:12:57.889Z,10.77
2019-06-10T08:15:25.921Z,10.00
2019-06-10T08:17:53.853Z,10.20
2019-06-10T08:20:42.204Z,10.20
2019-06-10T08:23:09.466Z,9.30
2019-06-10T08:25:38.460Z,9.23
2019-06-10T08:28:06.542Z,9.97
2019-06-10T08:30:35.571Z,9.63
2019-06-10T08:33:03.680Z,9.97
2019-06-10T08:35:39.527Z,10.20
2019-06-10T08:38:02.497Z,9.70
2019-06-10T08:40:32.607Z,10.13
2019-06-10T08:43:00.279Z,9.37
2019-06-10T08:45:28.224Z,9.80
2019-06-10T08:47:56.240Z,9.57
2019-06-10T08:50:24.872Z,10.30
2019-06-10T08:53:09.213Z,10.20
2019-06-10T08:55:22.923Z,10.60
2019-06-10T08:57:53.866Z,10.00
2019-06-10T09:00:25.469Z,10.77
2019-06-10T09:02:53.952Z,10.37
2019-06-10T09:05:23.231Z,10.57
2019-06-10T09:07:54.325Z,10.47
2019-06-10T09:10:22.687Z,10.90
2019-06-10T09:12:54.379Z,13.97
2019-06-10T09:15:21.396Z,10.77
2019-06-10T09:17:52.954Z,9.50
2019-06-10T09:20:23.074Z,9.87
2019-06-10T09:23:10.893Z,10.50
2019-06-10T09:25:22.450Z,10.77
2019-06-10T09:27:51.940Z,10.73
2019-06-10T09:30:19.432Z,11.07
2019-06-10T09:32:51.379Z,9.93
2019-06-10T09:35:17.138Z,9.93
2019-06-10T09:37:48.361Z,9.83
2019-06-10T09:40:14.990Z,9.77
2019-06-10T09:42:46.225Z,10.20
2019-06-10T09:45:13.064Z,9.80
2019-06-10T09:47:46.756Z,12.03
2019-06-10T09:50:12.268Z,11.97
2019-06-10T09:52:46.057Z,11.20
2019-06-10T09:55:12.856Z,12.03
2019-06-10T09:57:43.683Z,10.80
2019-06-10T10:00:12.517Z,11.40
2019-06-10T10:02:44.516Z,10.70
2019-06-10T10:05:11.653Z,10.70
2019-06-10T10:07:42.150Z,11.37
2019-06-10T10:10:12.672Z,12.40
2019-06-10T10:12:39.661Z,11.80
2019-06-10T10:15:22.573Z,11.63
2019-06-10T10:17:38.240Z,11.37
2019-06-10T10:20:06.521Z,11.80
2019-06-10T10:22:34.517Z,12.00
2019-06-10T10:25:03.053Z,12.70
2019-06-10T10:27:32.298Z,12.10
2019-06-10T10:30:03.141Z,12.60
2019-06-10T10:32:30.218Z,12.20
2019-06-10T10:34:58.188Z,11.90
2019-06-10T10:37:26.260Z,13.00
2019-06-10T10:39:56.459Z,12.60
2019-06-10T10:42:23.873Z,12.10
2019-06-10T10:44:57.486Z,13.37
2019-06-10T10:47:25.181Z,13.03
2019-06-10T10:49:55.250Z,13.40
2019-06-10T10:52:22.449Z,13.43
2019-06-10T10:54:51.880Z,13.37
2019-06-10T10:57:23.017Z,12.97
2019-06-10T10:59:53.975Z,12.33
2019-06-10T11:02:22.660Z,14.00
2019-06-10T11:04:49.984Z,13.83
2019-06-10T11:07:17.966Z,13.33
2019-06-10T11:09:46.648Z,13.70
2019-06-10T11:12:16.134Z,13.50
2019-06-10T11:14:44.866Z,13.77
2019-06-10T11:17:12.960Z,14.20
2019-06-10T11:19:40.865Z,13.60
2019-06-10T11:22:08.819Z,14.27
2019-06-10T11:24:41.142Z,13.53
2019-06-10T11:27:06.412Z,14.50
2019-06-10T11:29:34.349Z,13.87
2019-06-10T11:32:03.125Z,14.43
2019-06-10T11:34:33.271Z,15.30
2019-06-10T11:37:02.295Z,14.53
2019-06-10T11:39:33.024Z,13.90
2019-06-10T11:42:02.216Z,14.17
2019-06-10T11:44:29.867Z,14.30
2019-06-10T11:46:59.697Z,13.83
2019-06-10T11:49:27.437Z,13.87
2019-06-10T11:51:56.466Z,13.47
2019-06-10T11:54:25.122Z,14.70
2019-06-10T11:56:56.349Z,14.60
2019-06-10T11:59:22.795Z,14.50
2019-06-10T12:01:52.591Z,13.07
2019-06-10T12:04:20.296Z,14.70
2019-06-10T12:06:48.652Z,14.80
2019-06-10T12:09:16.727Z,14.93
2019-06-10T12:11:44.702Z,15.00
2019-06-10T12:14:13.069Z,15.90
2019-06-10T12:19:12.726Z,16.20
2019-06-10T12:21:43.214Z,15.60
2019-06-10T12:24:12.459Z,15.60
2019-06-10T12:26:39.793Z,15.80
2019-06-10T12:29:07.857Z,14.97
2019-06-10T12:31:35.830Z,15.70
2019-06-10T12:34:05.980Z,15.03
2019-06-10T12:36:33.526Z,14.40
2019-06-10T12:39:07.924Z,16.00
2019-06-10T12:41:33.239Z,16.30
2019-06-10T12:44:02.917Z,16.10
2019-06-10T12:46:32.744Z,15.47
2019-06-10T12:49:03.920Z,15.77
2019-06-10T12:51:30.211Z,15.03
2019-06-10T12:53:59.368Z,16.37
2019-06-10T12:56:27.509Z,15.50
2019-06-10T12:58:57.426Z,14.80
2019-06-10T13:01:25.303Z,14.77
2019-06-10T13:03:53.759Z,14.77
2019-06-10T13:06:23.570Z,15.67
2019-06-10T13:08:53.289Z,15.07
2019-06-10T13:11:23.404Z,15.50
2019-06-10T13:13:53.040Z,13.97
2019-06-10T13:16:20.784Z,14.97
2019-06-10T13:18:48.762Z,14.00
2019-06-10T13:21:17.901Z,14.13
2019-06-10T13:23:46.137Z,15.70
2019-06-10T13:26:16.679Z,15.43
2019-06-10T13:28:44.568Z,14.93
2019-06-10T13:31:14.048Z,15.07
2019-06-10T13:33:42.891Z,16.20
2019-06-10T13:36:11.396Z,15.00
2019-06-10T13:38:39.442Z,14.90
2019-06-10T13:41:07.794Z,15.70
2019-06-10T13:43:35.934Z,14.20
2019-06-10T13:46:06.988Z,15.50
2019-06-10T13:48:33.726Z,14.40
2019-06-10T13:51:08.360Z,15.67
2019-06-10T13:53:31.369Z,14.60
2019-06-10T13:56:18.982Z,15.37
2019-06-10T13:58:29.107Z,15.60
2019-06-10T14:00:57.011Z,15.40
2019-06-10T14:03:25.045Z,15.57
2019-06-10T14:05:59.154Z,15.27
2019-06-10T14:08:23.293Z,13.93
2019-06-10T14:10:53.683Z,13.77
2019-06-10T14:13:23.543Z,15.00
2019-06-10T14:15:53.016Z,15.00
2019-06-10T14:18:22.897Z,15.77
2019-06-10T14:20:52.830Z,14.50
2019-06-10T14:23:21.825Z,15.50
2019-06-10T14:25:51.979Z,14.60
2019-06-10T14:28:35.788Z,16.13
2019-06-10T14:30:48.937Z,15.13
2019-06-10T14:33:17.006Z,15.40
2019-06-10T14:35:44.979Z,14.37
2019-06-10T14:38:14.588Z,14.87
2019-06-10T14:40:43.078Z,13.93
2019-06-10T14:43:13.503Z,13.67
2019-06-10T14:45:42.477Z,13.70
2019-06-10T14:48:11.465Z,14.67
2019-06-10T14:50:40.262Z,13.87
2019-06-10T14:53:08.965Z,15.47
2019-06-10T14:55:37.001Z,14.77
2019-06-10T14:58:05.389Z,14.43
2019-06-10T15:00:33.558Z,14.30
2019-06-10T15:03:02.503Z,14.37
2019-06-10T15:05:32.379Z,14.53
2019-06-10T15:08:00.335Z,14.10
2019-06-10T15:10:28.334Z,13.97
2019-06-10T15:12:56.380Z,16.20
2019-06-10T15:15:24.480Z,14.20
2019-06-10T15:17:52.683Z,14.87
2019-06-10T15:20:22.716Z,15.80
2019-06-10T15:22:52.656Z,13.57
2019-06-10T15:25:25.404Z,14.80
2019-06-10T15:27:52.079Z,13.83
2019-06-10T15:30:26.372Z,15.57
2019-06-10T15:32:49.463Z,13.97
2019-06-10T15:35:20.131Z,14.37
2019-06-10T15:37:47.249Z,13.77
2019-06-10T15:40:16.777Z,12.87
2019-06-10T15:42:44.950Z,13.90
2019-06-10T15:45:16.284Z,14.37
2019-06-10T15:47:42.839Z,14.47
2019-06-10T15:50:12.887Z,13.50
2019-06-10T15:52:43.032Z,13.50
2019-06-10T15:55:11.248Z,14.17
2019-06-10T15:57:43.724Z,13.17
2019-06-10T16:00:14.310Z,14.27
2019-06-10T16:02:39.660Z,13.90
2019-06-10T16:05:07.614Z,14.20
2019-06-10T16:07:35.674Z,13.80
2019-06-10T16:10:03.964Z,14.17
2019-06-10T16:12:33.019Z,13.87
2019-06-10T16:15:02.664Z,14.83
2019-06-10T16:17:33.115Z,16.13
2019-06-10T16:20:03.650Z,14.77
2019-06-10T16:22:30.124Z,14.70
2019-06-10T16:24:58.103Z,15.53
2019-06-10T16:27:43.399Z,15.43
2019-06-10T16:29:57.638Z,17.00
2019-06-10T16:32:26.510Z,15.57
2019-06-10T16:34:54.909Z,18.13
2019-06-10T16:37:25.321Z,23.47
2019-06-10T16:39:52.536Z,16.50
2019-06-10T16:42:22.965Z,15.70
2019-06-10T16:44:50.197Z,16.53
2019-06-10T16:47:19.100Z,16.40
2019-06-10T16:49:47.176Z,17.83
2019-06-10T16:52:15.051Z,17.70
2019-06-10T16:54:42.963Z,16.93
2019-06-10T16:57:12.392Z,16.60
2019-06-10T16:59:42.784Z,16.77
2019-06-10T17:02:10.133Z,16.33
2019-06-10T17:04:38.028Z,17.13
2019-06-10T17:07:06.016Z,15.57
2019-06-10T17:09:33.965Z,14.80
2019-06-10T17:12:02.370Z,16.97
2019-06-10T17:14:33.365Z,16.60
2019-06-10T17:17:00.242Z,16.13
2019-06-10T17:19:29.947Z,15.93
2019-06-10T17:21:57.807Z,15.97
2019-06-10T17:24:27.331Z,19.30
2019-06-10T17:26:55.484Z,15.77
2019-06-10T17:29:25.968Z,15.20
2019-06-10T17:31:53.184Z,15.10
2019-06-10T17:34:24.595Z,16.23
2019-06-10T17:36:53.637Z,16.90
2019-06-10T17:39:23.373Z,15.20
2019-06-10T17:41:50.572Z,14.00
2019-06-10T17:44:18.689Z,14.60
2019-06-10T17:46:46.833Z,14.93
2019-06-10T17:49:14.885Z,15.07
2019-06-10T17:51:43.372Z,15.50
2019-06-10T17:54:12.943Z,13.90
2019-06-10T17:56:42.619Z,13.80
2019-06-10T17:59:12.829Z,14.07
2019-06-10T18:01:40.469Z,14.37
2019-06-10T18:04:08.542Z,13.23
2019-06-10T18:06:36.648Z,14.93
2019-06-10T18:09:05.708Z,13.67
2019-06-10T18:11:35.673Z,14.17
2019-06-10T18:14:03.464Z,13.87
2019-06-10T18:16:35.898Z,13.47
2019-06-10T18:19:03.401Z,14.90
2019-06-10T18:21:33.536Z,14.40
2019-06-10T18:24:07.382Z,13.53
2019-06-10T18:26:33.406Z,13.00
2019-06-10T18:29:06.052Z,13.60
2019-06-10T18:31:33.518Z,14.13
2019-06-10T18:34:02.365Z,13.63
2019-06-10T18:36:30.653Z,14.67
2019-06-10T18:38:59.419Z,13.73
2019-06-10T18:41:27.845Z,15.37
2019-06-10T18:43:56.108Z,14.70
2019-06-10T18:46:24.174Z,14.00
2019-06-10T18:48:53.630Z,15.70
2019-06-10T18:51:22.938Z,14.60
2019-06-10T18:53:51.295Z,15.07
2019-06-10T18:56:19.294Z,15.00
2019-06-10T18:58:47.315Z,14.13
2019-06-10T19:01:15.400Z,14.60
2019-06-10T19:03:43.418Z,14.40
2019-06-10T19:06:12.587Z,15.03
2019-06-10T19:08:43.923Z,15.43
2019-06-10T19:11:10.396Z,16.47
2019-06-10T19:13:39.167Z,14.73
2019-06-10T19:16:08.240Z,14.60
2019-06-10T19:18:36.271Z,13.60
2019-06-10T19:21:07.718Z,14.97
2019-06-10T19:23:36.117Z,15.40
2019-06-10T19:26:03.662Z,15.10
2019-06-10T19:28:33.901Z,14.90
2019-06-10T19:31:02.422Z,15.00
2019-06-10T19:33:34.106Z,15.80
2019-06-10T19:36:03.095Z,15.77
2019-06-10T19:38:33.979Z,15.40
2019-06-10T19:41:02.751Z,16.13
2019-06-10T19:43:34.517Z,15.80
2019-06-10T19:46:04.342Z,15.80
2019-06-10T19:48:33.103Z,16.20
2019-06-10T19:51:02.906Z,16.00
2019-06-10T19:53:32.596Z,15.67
2019-06-10T19:56:02.575Z,15.57
2019-06-10T19:58:32.396Z,15.53
2019-06-10T20:01:00.522Z,16.40
2019-06-10T20:03:28.848Z,16.70
2019-06-10T20:05:56.921Z,24.17
2019-06-10T20:08:25.141Z,15.70
2019-06-10T20:10:53.425Z,15.50
2019-06-10T20:13:23.020Z,16.47
2019-06-10T20:15:52.502Z,16.67
2019-06-10T20:18:22.709Z,17.63
2019-06-10T20:20:53.790Z,15.70
2019-06-10T20:23:20.798Z,16.90
2019-06-10T20:25:48.927Z,15.50
2019-06-10T20:28:17.192Z,15.60
2019-06-10T20:30:48.672Z,16.00
2019-06-10T20:33:29.114Z,15.00
2019-06-10T20:35:57.366Z,16.17
2019-06-10T20:38:25.365Z,16.50
2019-06-10T20:40:53.783Z,16.40
2019-06-10T20:43:22.387Z,16.07
2019-06-10T20:45:50.608Z,16.20
2019-06-10T20:48:18.768Z,15.80
2019-06-10T20:50:48.527Z,15.70
2019-06-10T20:53:18.667Z,16.37
2019-06-10T20:55:52.047Z,16.07
2019-06-10T20:58:16.577Z,16.80
2019-06-10T21:00:49.857Z,16.33
2019-06-10T21:03:14.348Z,15.30
2019-06-10T21:05:43.889Z,15.33
2019-06-10T21:08:12.317Z,16.40
2019-06-10T21:10:44.704Z,16.00
2019-06-10T21:13:12.324Z,16.87
2019-06-10T21:15:43.519Z,17.07
2019-06-10T21:18:09.997Z,15.53
2019-06-10T21:20:38.048Z,15.50
2019-06-10T21:23:06.341Z,16.10
2019-06-10T21:25:34.488Z,15.93
2019-06-10T21:28:03.423Z,14.73
2019-06-10T21:30:40.583Z,15.53
2019-06-10T21:33:03.435Z,15.63
2019-06-10T21:35:31.210Z,15.00
2019-06-10T21:37:59.158Z,16.13
2019-06-10T21:40:27.096Z,15.37
2019-06-10T21:42:55.188Z,15.60
2019-06-10T21:45:23.307Z,15.37
2019-06-10T21:47:53.345Z,16.33
2019-06-10T21:50:22.690Z,15.77
2019-06-10T21:52:53.094Z,16.53
2019-06-10T21:55:22.313Z,16.47
2019-06-10T21:57:51.569Z,16.60
2019-06-10T22:00:23.173Z,16.00
2019-06-10T22:02:56.346Z,16.13
2019-06-10T22:05:22.455Z,16.20
2019-06-10T22:07:53.230Z,16.90
2019-06-10T22:10:22.905Z,15.87
2019-06-10T22:12:53.161Z,18.50
2019-06-10T22:15:22.614Z,15.27
2019-06-10T22:17:50.915Z,15.50
2019-06-10T22:20:20.102Z,15.60
2019-06-10T22:22:48.551Z,15.50
2019-06-10T22:25:16.871Z,16.90
2019-06-10T22:27:45.768Z,15.43
2019-06-10T22:30:15.044Z,15.10
2019-06-10T22:32:43.082Z,16.43
2019-06-10T22:35:12.228Z,16.63
2019-06-10T22:37:40.594Z,16.03
2019-06-10T22:40:08.566Z,15.70
2019-06-10T22:42:36.450Z,15.43
2019-06-10T22:45:04.573Z,14.37
2019-06-10T22:47:32.497Z,16.00
2019-06-10T22:50:06.109Z,15.00
2019-06-10T22:52:32.120Z,16.50
2019-06-10T22:55:01.084Z,15.83
2019-06-10T22:57:29.691Z,15.30
2019-06-10T22:59:58.148Z,16.10
2019-06-10T23:02:27.407Z,15.40
2019-06-10T23:04:59.100Z,15.30
2019-06-10T23:07:25.069Z,15.30
2019-06-10T23:09:54.497Z,15.50
2019-06-10T23:12:22.709Z,16.10
2019-06-10T23:14:50.756Z,15.50
2019-06-10T23:17:21.972Z,17.57
2019-06-10T23:19:53.302Z,15.80
2019-06-10T23:22:21.912Z,15.50
2019-06-10T23:24:49.526Z,15.37
2019-06-10T23:27:17.691Z,16.47
2019-06-10T23:29:45.661Z,16.47
2019-06-10T23:32:13.642Z,16.53
2019-06-10T23:34:42.235Z,16.40
2019-06-10T23:37:12.548Z,15.67
2019-06-10T23:39:42.455Z,16.70
2019-06-10T23:42:12.079Z,16.00
2019-06-10T23:44:39.306Z,16.87
2019-06-10T23:47:07.293Z,15.40
2019-06-10T23:49:35.268Z,15.73
2019-06-10T23:52:05.175Z,16.20
2019-06-10T23:54:32.931Z,17.10
2019-06-10T23:57:03.985Z,16.33
2019-06-10T23:59:33.098Z,16.00
